sensor_id;sensor_type;location;lat;lon;timestamp;temperature;humidity
19966;DHT22;10144;50.874;4.762;2023-04-01T00:00:50;9.60;99.90
19966;DHT22;10144;50.874;4.762;2023-04-01T00:03:16;9.60;99.90
19966;DHT22;10144;50.874;4.762;2023-04-01T00:05:42;9.50;99.90
19966;DHT22;10144;50.874;4.762;2023-04-01T00:08:09;9.60;99.90
19966;DHT22;10144;50.874;4.762;2023-04-01T00:10:34;9.50;99.90
19966;DHT22;10144;50.874;4.762;2023-04-01T00:13:00;9.50;99.90
19966;DHT22;10144;50.874;4.762;2023-04-01T00:15:26;9.50;99.90
19966;DHT22;10144;50.874;4.762;2023-04-01T00:17:51;9.60;99.90
19966;DHT22;10144;50.874;4.762;2023-04-01T00:20:17;9.60;99.90
19966;DHT22;10144;50.874;4.762;2023-04-01T00:22:44;9.60;99.90
19966;DHT22;10144;50.874;4.762;2023-04-01T00:25:09;9.60;99.90
19966;DHT22;10144;50.874;4.762;2023-04-01T00:27:38;9.60;99.90
19966;DHT22;10144;50.874;4.762;2023-04-01T00:30:06;9.60;99.90
19966;DHT22;10144;50.874;4.762;2023-04-01T00:32:34;9.60;99.90
19966;DHT22;10144;50.874;4.762;2023-04-01T00:35:01;9.60;99.90
19966;DHT22;10144;50.874;4.762;2023-04-01T00:37:28;9.50;99.90
19966;DHT22;10144;50.874;4.762;2023-04-01T00:39:57;9.50;99.90
19966;DHT22;10144;50.874;4.762;2023-04-01T00:42:23;9.50;99.90
19966;DHT22;10144;50.874;4.762;2023-04-01T00:44:53;9.40;99.90
19966;DHT22;10144;50.874;4.762;2023-04-01T00:47:24;9.50;99.90
19966;DHT22;10144;50.874;4.762;2023-04-01T00:49:54;9.60;99.90
19966;DHT22;10144;50.874;4.762;2023-04-01T00:52:26;9.60;99.90
19966;DHT22;10144;50.874;4.762;2023-04-01T00:54:58;9.50;99.90
19966;DHT22;10144;50.874;4.762;2023-04-01T00:57:34;9.50;99.90
19966;DHT22;10144;50.874;4.762;2023-04-01T01:00:06;9.50;99.90
19966;DHT22;10144;50.874;4.762;2023-04-01T01:02:45;9.50;99.90
19966;DHT22;10144;50.874;4.762;2023-04-01T01:05:14;9.50;99.90
19966;DHT22;10144;50.874;4.762;2023-04-01T01:10:49;9.60;99.90
19966;DHT22;10144;50.874;4.762;2023-04-01T01:13:36;9.50;99.90
19966;DHT22;10144;50.874;4.762;2023-04-01T01:16:27;9.60;99.90
19966;DHT22;10144;50.874;4.762;2023-04-01T01:22:08;9.50;99.90
19966;DHT22;10144;50.874;4.762;2023-04-01T01:27:23;9.50;99.90
19966;DHT22;10144;50.874;4.762;2023-04-01T01:30:22;9.40;99.90
19966;DHT22;10144;50.874;4.762;2023-04-01T01:35:57;9.40;99.90
19966;DHT22;10144;50.874;4.762;2023-04-01T01:38:29;9.40;99.90
19966;DHT22;10144;50.874;4.762;2023-04-01T01:40:58;9.40;99.90
19966;DHT22;10144;50.874;4.762;2023-04-01T01:43:31;9.40;99.90
19966;DHT22;10144;50.874;4.762;2023-04-01T01:46:10;9.50;99.90
19966;DHT22;10144;50.874;4.762;2023-04-01T01:48:38;9.50;99.90
19966;DHT22;10144;50.874;4.762;2023-04-01T01:51:11;9.50;99.90
19966;DHT22;10144;50.874;4.762;2023-04-01T01:53:39;9.50;99.90
19966;DHT22;10144;50.874;4.762;2023-04-01T01:56:10;9.50;99.90
19966;DHT22;10144;50.874;4.762;2023-04-01T01:58:49;9.60;99.90
19966;DHT22;10144;50.874;4.762;2023-04-01T02:01:24;9.50;99.90
19966;DHT22;10144;50.874;4.762;2023-04-01T02:03:55;9.50;99.90
19966;DHT22;10144;50.874;4.762;2023-04-01T02:06:30;9.50;99.90
19966;DHT22;10144;50.874;4.762;2023-04-01T02:09:02;9.60;99.90
19966;DHT22;10144;50.874;4.762;2023-04-01T02:11:49;9.60;99.90
19966;DHT22;10144;50.874;4.762;2023-04-01T02:14:26;9.50;99.90
19966;DHT22;10144;50.874;4.762;2023-04-01T02:16:59;9.50;99.90
19966;DHT22;10144;50.874;4.762;2023-04-01T02:19:33;9.50;99.90
19966;DHT22;10144;50.874;4.762;2023-04-01T02:22:05;9.50;99.90
19966;DHT22;10144;50.874;4.762;2023-04-01T02:24:33;9.40;99.90
19966;DHT22;10144;50.874;4.762;2023-04-01T02:27:09;9.40;99.90
19966;DHT22;10144;50.874;4.762;2023-04-01T02:29:35;9.50;99.90
19966;DHT22;10144;50.874;4.762;2023-04-01T02:32:05;9.40;99.90
19966;DHT22;10144;50.874;4.762;2023-04-01T02:34:32;9.40;99.90
19966;DHT22;10144;50.874;4.762;2023-04-01T02:36:58;9.50;99.90
19966;DHT22;10144;50.874;4.762;2023-04-01T02:39:37;9.40;99.90
19966;DHT22;10144;50.874;4.762;2023-04-01T02:42:09;9.50;99.90
19966;DHT22;10144;50.874;4.762;2023-04-01T02:44:37;9.40;99.90
19966;DHT22;10144;50.874;4.762;2023-04-01T02:47:03;9.40;99.90
19966;DHT22;10144;50.874;4.762;2023-04-01T02:49:36;9.40;99.90
19966;DHT22;10144;50.874;4.762;2023-04-01T02:52:03;9.50;99.90
19966;DHT22;10144;50.874;4.762;2023-04-01T02:54:32;9.50;99.90
19966;DHT22;10144;50.874;4.762;2023-04-01T02:57:01;9.60;99.90
19966;DHT22;10144;50.874;4.762;2023-04-01T02:59:26;9.40;99.90
19966;DHT22;10144;50.874;4.762;2023-04-01T03:01:55;9.40;99.90
19966;DHT22;10144;50.874;4.762;2023-04-01T03:04:21;9.40;99.90
19966;DHT22;10144;50.874;4.762;2023-04-01T03:06:47;9.30;99.90
19966;DHT22;10144;50.874;4.762;2023-04-01T03:09:33;9.30;99.90
19966;DHT22;10144;50.874;4.762;2023-04-01T03:12:02;9.30;99.90
19966;DHT22;10144;50.874;4.762;2023-04-01T03:14:27;9.30;99.90
19966;DHT22;10144;50.874;4.762;2023-04-01T03:16:56;9.30;99.90
19966;DHT22;10144;50.874;4.762;2023-04-01T03:19:59;9.30;99.90
19966;DHT22;10144;50.874;4.762;2023-04-01T03:22:28;9.40;99.90
19966;DHT22;10144;50.874;4.762;2023-04-01T03:25:26;9.50;99.90
19966;DHT22;10144;50.874;4.762;2023-04-01T03:27:57;9.40;99.90
19966;DHT22;10144;50.874;4.762;2023-04-01T03:30:26;9.30;99.90
19966;DHT22;10144;50.874;4.762;2023-04-01T03:32:52;9.30;99.90
19966;DHT22;10144;50.874;4.762;2023-04-01T03:35:21;9.30;99.90
19966;DHT22;10144;50.874;4.762;2023-04-01T03:37:51;9.30;99.90
19966;DHT22;10144;50.874;4.762;2023-04-01T03:40:21;9.30;99.90
19966;DHT22;10144;50.874;4.762;2023-04-01T03:42:47;9.30;99.90
19966;DHT22;10144;50.874;4.762;2023-04-01T03:45:12;9.30;99.90
19966;DHT22;10144;50.874;4.762;2023-04-01T03:47:44;9.30;99.90
19966;DHT22;10144;50.874;4.762;2023-04-01T03:50:11;9.30;99.90
19966;DHT22;10144;50.874;4.762;2023-04-01T03:52:39;9.30;99.90
19966;DHT22;10144;50.874;4.762;2023-04-01T03:55:08;9.20;99.90
19966;DHT22;10144;50.874;4.762;2023-04-01T03:57:37;9.20;99.90
19966;DHT22;10144;50.874;4.762;2023-04-01T04:00:04;9.20;99.90
19966;DHT22;10144;50.874;4.762;2023-04-01T04:02:33;9.20;99.90
19966;DHT22;10144;50.874;4.762;2023-04-01T04:05:02;9.20;99.90
19966;DHT22;10144;50.874;4.762;2023-04-01T04:07:28;9.10;99.90
19966;DHT22;10144;50.874;4.762;2023-04-01T04:09:53;9.10;99.90
19966;DHT22;10144;50.874;4.762;2023-04-01T04:12:19;9.10;99.90
19966;DHT22;10144;50.874;4.762;2023-04-01T04:14:50;9.00;99.90
19966;DHT22;10144;50.874;4.762;2023-04-01T04:17:18;9.10;99.90
19966;DHT22;10144;50.874;4.762;2023-04-01T04:19:46;9.20;99.90
19966;DHT22;10144;50.874;4.762;2023-04-01T04:22:11;9.20;99.90
19966;DHT22;10144;50.874;4.762;2023-04-01T04:24:39;9.20;99.90
19966;DHT22;10144;50.874;4.762;2023-04-01T04:27:07;9.20;99.90
19966;DHT22;10144;50.874;4.762;2023-04-01T04:29:48;9.10;99.90
19966;DHT22;10144;50.874;4.762;2023-04-01T04:32:15;9.20;99.90
19966;DHT22;10144;50.874;4.762;2023-04-01T04:34:45;9.30;99.90
19966;DHT22;10144;50.874;4.762;2023-04-01T04:37:17;9.20;99.90
19966;DHT22;10144;50.874;4.762;2023-04-01T04:39:42;9.20;99.90
19966;DHT22;10144;50.874;4.762;2023-04-01T04:42:08;9.20;99.90
19966;DHT22;10144;50.874;4.762;2023-04-01T04:44:37;9.20;99.90
19966;DHT22;10144;50.874;4.762;2023-04-01T04:47:02;9.20;99.90
19966;DHT22;10144;50.874;4.762;2023-04-01T04:49:31;9.20;99.90
19966;DHT22;10144;50.874;4.762;2023-04-01T04:51:57;9.20;99.90
19966;DHT22;10144;50.874;4.762;2023-04-01T04:54:25;9.20;99.90
19966;DHT22;10144;50.874;4.762;2023-04-01T04:56:54;9.20;99.90
19966;DHT22;10144;50.874;4.762;2023-04-01T04:59:23;9.20;99.90
19966;DHT22;10144;50.874;4.762;2023-04-01T05:01:50;9.20;99.90
19966;DHT22;10144;50.874;4.762;2023-04-01T05:04:16;9.20;99.90
19966;DHT22;10144;50.874;4.762;2023-04-01T05:06:45;9.20;99.90
19966;DHT22;10144;50.874;4.762;2023-04-01T05:09:14;9.20;99.90
19966;DHT22;10144;50.874;4.762;2023-04-01T05:11:48;9.20;99.90
19966;DHT22;10144;50.874;4.762;2023-04-01T05:14:17;9.10;99.90
19966;DHT22;10144;50.874;4.762;2023-04-01T05:16:46;9.20;99.90
19966;DHT22;10144;50.874;4.762;2023-04-01T05:19:29;9.20;99.90
19966;DHT22;10144;50.874;4.762;2023-04-01T05:21:58;9.10;99.90
19966;DHT22;10144;50.874;4.762;2023-04-01T05:24:27;9.20;99.90
19966;DHT22;10144;50.874;4.762;2023-04-01T05:26:54;9.10;99.90
19966;DHT22;10144;50.874;4.762;2023-04-01T05:29:25;9.20;99.90
19966;DHT22;10144;50.874;4.762;2023-04-01T05:31:54;9.10;99.90
19966;DHT22;10144;50.874;4.762;2023-04-01T05:34:23;9.30;99.90
19966;DHT22;10144;50.874;4.762;2023-04-01T05:36:51;9.30;99.90
19966;DHT22;10144;50.874;4.762;2023-04-01T05:39:18;9.20;99.90
19966;DHT22;10144;50.874;4.762;2023-04-01T05:41:47;9.20;99.90
19966;DHT22;10144;50.874;4.762;2023-04-01T05:44:16;9.20;99.90
19966;DHT22;10144;50.874;4.762;2023-04-01T05:46:44;9.20;99.90
19966;DHT22;10144;50.874;4.762;2023-04-01T05:49:10;9.20;99.90
19966;DHT22;10144;50.874;4.762;2023-04-01T05:51:36;9.10;99.90
19966;DHT22;10144;50.874;4.762;2023-04-01T05:54:05;9.20;99.90
19966;DHT22;10144;50.874;4.762;2023-04-01T05:56:31;9.20;99.90
19966;DHT22;10144;50.874;4.762;2023-04-01T05:58:57;9.20;99.90
19966;DHT22;10144;50.874;4.762;2023-04-01T06:01:28;9.20;99.90
19966;DHT22;10144;50.874;4.762;2023-04-01T06:04:06;9.20;99.90
19966;DHT22;10144;50.874;4.762;2023-04-01T06:06:35;9.20;99.90
19966;DHT22;10144;50.874;4.762;2023-04-01T06:09:23;9.20;99.90
19966;DHT22;10144;50.874;4.762;2023-04-01T06:14:38;9.20;99.90
19966;DHT22;10144;50.874;4.762;2023-04-01T06:17:37;9.20;99.90
19966;DHT22;10144;50.874;4.762;2023-04-01T06:21:11;9.30;99.90
19966;DHT22;10144;50.874;4.762;2023-04-01T06:32:06;9.10;99.90
19966;DHT22;10144;50.874;4.762;2023-04-01T06:40:58;9.20;99.90
19966;DHT22;10144;50.874;4.762;2023-04-01T06:44:21;9.20;99.90
19966;DHT22;10144;50.874;4.762;2023-04-01T06:46:42;9.20;99.90
19966;DHT22;10144;50.874;4.762;2023-04-01T06:49:39;9.20;99.90
19966;DHT22;10144;50.874;4.762;2023-04-01T06:52:31;9.30;99.90
19966;DHT22;10144;50.874;4.762;2023-04-01T06:58:42;9.20;99.90
19966;DHT22;10144;50.874;4.762;2023-04-01T07:04:16;9.30;99.90
19966;DHT22;10144;50.874;4.762;2023-04-01T07:16:43;9.20;99.90
19966;DHT22;10144;50.874;4.762;2023-04-01T07:19:32;9.20;99.90
19966;DHT22;10144;50.874;4.762;2023-04-01T07:25:38;9.20;99.90
19966;DHT22;10144;50.874;4.762;2023-04-01T07:50:40;9.20;99.90
19966;DHT22;10144;50.874;4.762;2023-04-01T08:20:32;9.90;99.90
19966;DHT22;10144;50.874;4.762;2023-04-01T08:26:39;9.60;99.90
19966;DHT22;10144;50.874;4.762;2023-04-01T08:39:20;9.40;99.90
19966;DHT22;10144;50.874;4.762;2023-04-01T08:48:08;9.60;99.90
19966;DHT22;10144;50.874;4.762;2023-04-01T08:54:08;9.70;99.90
19966;DHT22;10144;50.874;4.762;2023-04-01T09:41:36;10.50;99.90
19966;DHT22;10144;50.874;4.762;2023-04-01T09:54:24;10.50;99.90
19966;DHT22;10144;50.874;4.762;2023-04-01T10:33:03;10.80;99.90
19966;DHT22;10144;50.874;4.762;2023-04-01T10:54:40;11.90;99.90
19966;DHT22;10144;50.874;4.762;2023-04-01T11:03:31;13.50;99.90
19966;DHT22;10144;50.874;4.762;2023-04-01T11:27:18;12.70;99.90
19966;DHT22;10144;50.874;4.762;2023-04-01T11:33:00;12.40;99.90
19966;DHT22;10144;50.874;4.762;2023-04-01T11:36:05;12.40;99.90
19966;DHT22;10144;50.874;4.762;2023-04-01T11:38:45;12.10;99.90
19966;DHT22;10144;50.874;4.762;2023-04-01T11:41:42;11.80;99.90
19966;DHT22;10144;50.874;4.762;2023-04-01T11:44:27;11.90;99.90
19966;DHT22;10144;50.874;4.762;2023-04-01T11:50:18;11.50;99.90
19966;DHT22;10144;50.874;4.762;2023-04-01T11:58:53;11.80;99.90
19966;DHT22;10144;50.874;4.762;2023-04-01T12:10:18;11.30;99.90
19966;DHT22;10144;50.874;4.762;2023-04-01T12:22:12;11.60;99.90
19966;DHT22;10144;50.874;4.762;2023-04-01T12:30:45;11.70;99.90
19966;DHT22;10144;50.874;4.762;2023-04-01T12:44:33;11.80;99.90
19966;DHT22;10144;50.874;4.762;2023-04-01T13:00:54;11.10;99.90
19966;DHT22;10144;50.874;4.762;2023-04-01T13:03:48;11.10;99.90
19966;DHT22;10144;50.874;4.762;2023-04-01T13:19:57;10.90;99.90
19966;DHT22;10144;50.874;4.762;2023-04-01T13:25:38;11.10;99.90
19966;DHT22;10144;50.874;4.762;2023-04-01T13:43:43;10.80;99.90
19966;DHT22;10144;50.874;4.762;2023-04-01T13:46:54;10.80;99.90
19966;DHT22;10144;50.874;4.762;2023-04-01T13:52:22;10.90;99.90
19966;DHT22;10144;50.874;4.762;2023-04-01T13:55:27;11.00;99.90
19966;DHT22;10144;50.874;4.762;2023-04-01T13:58:20;10.90;99.90
19966;DHT22;10144;50.874;4.762;2023-04-01T14:04:34;10.90;99.90
19966;DHT22;10144;50.874;4.762;2023-04-01T14:14:05;10.60;99.90
19966;DHT22;10144;50.874;4.762;2023-04-01T14:17:17;10.80;99.90
19966;DHT22;10144;50.874;4.762;2023-04-01T14:41:42;10.90;99.90
19966;DHT22;10144;50.874;4.762;2023-04-01T14:49:47;11.40;99.90
19966;DHT22;10144;50.874;4.762;2023-04-01T14:54:49;11.60;99.90
19966;DHT22;10144;50.874;4.762;2023-04-01T14:57:23;11.70;99.90
19966;DHT22;10144;50.874;4.762;2023-04-01T15:15:49;12.00;99.90
19966;DHT22;10144;50.874;4.762;2023-04-01T15:18:44;11.90;99.90
19966;DHT22;10144;50.874;4.762;2023-04-01T15:27:27;11.80;99.90
19966;DHT22;10144;50.874;4.762;2023-04-01T15:33:31;11.50;99.90
19966;DHT22;10144;50.874;4.762;2023-04-01T15:41:50;10.90;99.90
19966;DHT22;10144;50.874;4.762;2023-04-01T15:47:36;10.70;99.90
19966;DHT22;10144;50.874;4.762;2023-04-01T15:50:26;10.50;99.90
19966;DHT22;10144;50.874;4.762;2023-04-01T15:56:19;10.50;99.90
19966;DHT22;10144;50.874;4.762;2023-04-01T16:01:34;10.40;99.90
19966;DHT22;10144;50.874;4.762;2023-04-01T16:07:40;10.40;99.90
19966;DHT22;10144;50.874;4.762;2023-04-01T16:12:17;10.60;99.90
19966;DHT22;10144;50.874;4.762;2023-04-01T16:15:21;10.50;99.90
19966;DHT22;10144;50.874;4.762;2023-04-01T16:20:43;10.40;99.90
19966;DHT22;10144;50.874;4.762;2023-04-01T16:23:17;10.40;99.90
19966;DHT22;10144;50.874;4.762;2023-04-01T16:25:51;10.50;99.90
19966;DHT22;10144;50.874;4.762;2023-04-01T16:28:32;10.30;99.90
19966;DHT22;10144;50.874;4.762;2023-04-01T16:34:03;10.30;99.90
19966;DHT22;10144;50.874;4.762;2023-04-01T16:47:40;10.00;99.90
19966;DHT22;10144;50.874;4.762;2023-04-01T16:50:55;9.80;99.90
19966;DHT22;10144;50.874;4.762;2023-04-01T16:53:52;9.80;99.90
19966;DHT22;10144;50.874;4.762;2023-04-01T16:56:38;9.60;99.90
19966;DHT22;10144;50.874;4.762;2023-04-01T17:01:53;9.60;99.90
19966;DHT22;10144;50.874;4.762;2023-04-01T17:07:03;9.60;99.90
19966;DHT22;10144;50.874;4.762;2023-04-01T17:13:11;9.50;99.90
19966;DHT22;10144;50.874;4.762;2023-04-01T17:24:37;9.50;99.90
19966;DHT22;10144;50.874;4.762;2023-04-01T17:29:46;9.50;99.90
19966;DHT22;10144;50.874;4.762;2023-04-01T17:35:13;9.50;99.90
19966;DHT22;10144;50.874;4.762;2023-04-01T17:43:48;9.30;99.90
19966;DHT22;10144;50.874;4.762;2023-04-01T17:48:53;9.30;99.90
19966;DHT22;10144;50.874;4.762;2023-04-01T17:51:40;9.30;99.90
19966;DHT22;10144;50.874;4.762;2023-04-01T17:54:34;9.30;99.90
19966;DHT22;10144;50.874;4.762;2023-04-01T18:19:21;9.10;99.90
19966;DHT22;10144;50.874;4.762;2023-04-01T18:21:55;9.10;99.90
19966;DHT22;10144;50.874;4.762;2023-04-01T18:29:44;9.10;99.90
19966;DHT22;10144;50.874;4.762;2023-04-01T18:32:32;9.10;99.90
19966;DHT22;10144;50.874;4.762;2023-04-01T18:35:42;9.10;99.90
19966;DHT22;10144;50.874;4.762;2023-04-01T18:38:44;9.00;99.90
19966;DHT22;10144;50.874;4.762;2023-04-01T18:47:25;8.90;99.90
19966;DHT22;10144;50.874;4.762;2023-04-01T18:50:06;8.80;99.90
19966;DHT22;10144;50.874;4.762;2023-04-01T18:52:40;8.80;99.90
19966;DHT22;10144;50.874;4.762;2023-04-01T18:57:55;8.90;99.90
19966;DHT22;10144;50.874;4.762;2023-04-01T19:00:36;8.90;99.90
19966;DHT22;10144;50.874;4.762;2023-04-01T19:03:10;8.80;99.90
19966;DHT22;10144;50.874;4.762;2023-04-01T19:05:41;8.80;99.90
19966;DHT22;10144;50.874;4.762;2023-04-01T19:08:32;8.80;99.90
19966;DHT22;10144;50.874;4.762;2023-04-01T19:16:46;8.80;99.90
19966;DHT22;10144;50.874;4.762;2023-04-01T19:25:26;8.80;99.90
19966;DHT22;10144;50.874;4.762;2023-04-01T19:30:48;8.80;99.90
19966;DHT22;10144;50.874;4.762;2023-04-01T19:33:26;8.70;99.90
19966;DHT22;10144;50.874;4.762;2023-04-01T19:36:03;8.70;99.90
19966;DHT22;10144;50.874;4.762;2023-04-01T19:49:39;8.70;99.90
19966;DHT22;10144;50.874;4.762;2023-04-01T19:52:41;8.70;99.90
19966;DHT22;10144;50.874;4.762;2023-04-01T20:03:10;8.70;99.90
19966;DHT22;10144;50.874;4.762;2023-04-01T20:16:54;8.60;99.90
19966;DHT22;10144;50.874;4.762;2023-04-01T20:20:13;8.70;99.90
19966;DHT22;10144;50.874;4.762;2023-04-01T20:22:56;8.70;99.90
19966;DHT22;10144;50.874;4.762;2023-04-01T20:32:32;8.70;99.90
19966;DHT22;10144;50.874;4.762;2023-04-01T21:54:48;9.30;99.90
19966;DHT22;10144;50.874;4.762;2023-04-01T22:09:45;9.30;99.90
19966;DHT22;10144;50.874;4.762;2023-04-01T22:12:23;9.40;99.90
19966;DHT22;10144;50.874;4.762;2023-04-01T22:14:57;9.40;99.90
19966;DHT22;10144;50.874;4.762;2023-04-01T22:23:07;9.40;99.90
19966;DHT22;10144;50.874;4.762;2023-04-01T22:29:10;9.40;99.90
19966;DHT22;10144;50.874;4.762;2023-04-01T22:31:48;9.40;99.90
19966;DHT22;10144;50.874;4.762;2023-04-01T22:39:52;9.30;99.90
19966;DHT22;10144;50.874;4.762;2023-04-01T22:42:42;9.10;99.90
19966;DHT22;10144;50.874;4.762;2023-04-01T22:45:30;9.00;99.90
19966;DHT22;10144;50.874;4.762;2023-04-01T22:48:20;9.00;99.90
19966;DHT22;10144;50.874;4.762;2023-04-01T22:51:19;9.00;99.90
19966;DHT22;10144;50.874;4.762;2023-04-01T22:56:57;9.00;99.90
19966;DHT22;10144;50.874;4.762;2023-04-01T23:02:23;9.10;99.90
19966;DHT22;10144;50.874;4.762;2023-04-01T23:04:58;9.10;99.90
19966;DHT22;10144;50.874;4.762;2023-04-01T23:08:02;9.10;99.90
19966;DHT22;10144;50.874;4.762;2023-04-01T23:10:42;9.20;99.90
19966;DHT22;10144;50.874;4.762;2023-04-01T23:13:16;9.20;99.90
19966;DHT22;10144;50.874;4.762;2023-04-01T23:15:45;9.30;99.90
19966;DHT22;10144;50.874;4.762;2023-04-01T23:18:27;9.20;99.90
19966;DHT22;10144;50.874;4.762;2023-04-01T23:21:16;9.20;99.90
19966;DHT22;10144;50.874;4.762;2023-04-01T23:26:53;9.10;99.90
19966;DHT22;10144;50.874;4.762;2023-04-01T23:29:21;9.30;99.90
19966;DHT22;10144;50.874;4.762;2023-04-01T23:32:01;9.30;99.90
19966;DHT22;10144;50.874;4.762;2023-04-01T23:34:36;9.30;99.90
19966;DHT22;10144;50.874;4.762;2023-04-01T23:37:13;9.10;99.90
19966;DHT22;10144;50.874;4.762;2023-04-01T23:39:46;8.90;99.90
19966;DHT22;10144;50.874;4.762;2023-04-01T23:42:38;8.80;99.90
19966;DHT22;10144;50.874;4.762;2023-04-01T23:45:16;8.90;99.90
19966;DHT22;10144;50.874;4.762;2023-04-01T23:47:48;8.80;99.90
19966;DHT22;10144;50.874;4.762;2023-04-01T23:50:20;8.80;99.90
19966;DHT22;10144;50.874;4.762;2023-04-01T23:52:53;8.80;99.90
19966;DHT22;10144;50.874;4.762;2023-04-01T23:55:27;8.80;99.90
